Rockwall, TX (75032)

3:45 PM CDT on June 28, 2017 (GMT -0500)
Benton Woods | | Change Station

Elev 571 ft 32.88 °N, 96.47 °W | Updated 11 seconds ago

Partly Cloudy
Partly Cloudy
91.2 °F
Feels Like 100 °F
N
3.0
Wind Variable Wind from SSE
Gusts 8.0 mph

Today
High -- | Low -- °F
--% Chance of Precip.
Yesterday
High -- | Low -- °F
Precip. -- in
Pressure 29.91 in
Visibility 10.0 miles
Clouds Scattered Clouds 4300 ft
Scattered Clouds 5000 ft
Scattered Clouds 5500 ft
Heat Index 100 °F
Dew Point 73 °F
Humidity 55%
Rainfall 0.00 in
Snow Depth Not available.
6:20 AM 8:38 PM
Waxing Crescent, 28% visible
METAR KF46 282035Z AUTO 16008G17KT 130V190 10SM SCT043 SCT050 SCT055 31/22 A2991 RMK AO2 T03080215
Pressure 29.91 in
Visibility 10.0 miles
Clouds Scattered Clouds 4300 ft
Scattered Clouds 5000 ft
Scattered Clouds 5500 ft
Heat Index 100 °F
Dew Point 73 °F
Humidity 55%
Rainfall 0.00 in
Snow Depth Not available.
6:20 AM 8:38 PM
Waxing Crescent, 28% visible
METAR KF46 282035Z AUTO 16008G17KT 130V190 10SM SCT043 SCT050 SCT055 31/22 A2991 RMK AO2 T03080215

Get Severe Weather Alerts

Thanks for signing up!

Be on the lookout for a verification email in your inbox.

You'll start receiving the daily forecast at 6 AM.

×

10-Day Weather Forecast

Almanac

Astronomy

Jun. 28, 2017 Rise Set
Actual Time
Civil Twilight
Nautical Twilight
Astronomical Twilight
Moon
Length of Visible Light
Length of Day
Tomorrow will be .
, % of the Moon is Illuminated

Today's Extremes

State Highs State Lows

Community

WunderPhotos

Category 6

Welcome to Category 6. This is the collective home for Weather Underground's featured writeups by Dr. Jeff Masters (right), Bob Henson (left), Chris Burt, and other regular contributors.

Nearby

Air Quality

  Air Quality AQ Index Pollutant
Not available.

Snow Depth

Station Depth Elevation

Earthquake Activity

City Distance Mag. Time & Date
Minimum magnitude displayed is 2.5.

Coastal Water Temperatures

Place Temperature

Stations

Nearby Weather Stations

Station Location Temp. Windchill Dew Point Humidity Wind Precip. Elev Updated Type
                   

Watches & Warnings

There are currently no watches in effect.